Time;durP1;ratioP1;P1;durP2;ratioP2;P2;SDS_P1;SDS_P2;PMS_P1;PMS_P2;Temp;Humidity;BMP_temperature;BMP_pressure;BME280_temperature;BME280_humidity;BME280_pressure;Samples;Min_cycle;Max_cycle;Signal;HPM_P1;HPM_P2
2023/12/06 00:02:07;;;;;;;499.05;86.90;;;;;;;;;;4890763;29;20151;-90
2023/12/06 00:04:36;;;;;;;482.13;84.70;;;;;;;;;;4910334;29;20055;-88
2023/12/06 00:07:02;;;;;;;486.30;84.53;;;;;;;;;;4900245;29;20079;-90
2023/12/06 00:09:28;;;;;;;452.85;75.20;;;;;;;;;;4893292;29;20047;-90
2023/12/06 00:11:54;;;;;;;465.48;82.60;;;;;;;;;;4888220;29;20051;-90
2023/12/06 00:14:22;;;;;;;507.40;73.82;;;-0.20;99.90;;;;;;4907369;29;20055;-90
2023/12/06 00:16:51;;;;;;;470.60;76.18;;;-0.10;99.90;;;;;;4885121;29;20056;-89
2023/12/06 00:19:17;;;;;;;468.83;81.70;;;;;;;;;;4884828;29;20055;-88
2023/12/06 00:21:43;;;;;;;469.63;82.18;;;;;;;;;;4898375;29;20047;-89
2023/12/06 00:24:11;;;;;;;454.58;77.95;;;;;;;;;;4897693;29;20052;-90
2023/12/06 00:26:39;;;;;;;498.23;84.13;;;;;;;;;;4890240;29;20051;-89
2023/12/06 00:29:06;;;;;;;503.50;73.18;;;;;;;;;;4886107;29;20135;-89
2023/12/06 00:31:32;;;;;;;500.45;82.00;;;;;;;;;;4888976;29;20115;-89
2023/12/06 00:33:58;;;;;;;494.70;80.93;;;;;;;;;;4909444;29;20079;-89
2023/12/06 00:36:24;;;;;;;478.58;83.05;;;;;;;;;;4893758;29;20055;-90
2023/12/06 00:38:52;;;;;;;494.20;84.43;;;;;;;;;;4887359;29;20062;-89
2023/12/06 00:41:18;;;;;;;482.17;80.57;;;;;;;;;;4897928;29;20044;-91
2023/12/06 00:43:44;;;;;;;502.73;82.82;;;;;;;;;;4881103;29;20052;-90
2023/12/06 00:46:10;;;;;;;505.60;85.32;;;;;;;;;;4878882;29;20060;-89
2023/12/06 00:48:37;;;;;;;536.58;82.35;;;;;;;;;;4885370;29;20052;-90
2023/12/06 00:51:03;;;;;;;460.65;85.57;;;;;;;;;;4898645;29;20056;-89
2023/12/06 00:53:30;;;;;;;513.40;77.00;;;;;;;;;;4876879;29;20062;-90
2023/12/06 00:55:56;;;;;;;527.53;85.57;;;;;;;;;;4899063;29;20143;-90
2023/12/06 00:58:22;;;;;;;492.40;79.18;;;;;;;;;;4900016;29;20055;-89
2023/12/06 01:00:49;;;;;;;483.55;73.30;;;;;;;;;;4909748;29;20060;-89
2023/12/06 01:03:15;;;;;;;530.88;90.93;;;;;;;;;;4898480;29;20048;-90
2023/12/06 01:05:41;;;;;;;506.00;74.72;;;;;;;;;;4890561;29;20120;-90
2023/12/06 01:08:08;;;;;;;529.70;78.13;;;;;;;;;;4884935;29;20048;-89
2023/12/06 01:10:34;;;;;;;519.60;81.53;;;;;;;;;;4905733;29;20394;-89
2023/12/06 01:13:01;;;;;;;526.00;78.20;;;;;;;;;;4920075;29;20123;-90
2023/12/06 01:15:27;;;;;;;516.38;77.38;;;;;;;;;;4890956;29;20054;-88
2023/12/06 01:17:53;;;;;;;482.70;81.80;;;;;;;;;;4903451;29;20746;-89
2023/12/06 01:20:19;;;;;;;494.38;79.72;;;;;;;;;;4900653;29;20506;-90
2023/12/06 01:22:45;;;;;;;520.72;87.55;;;;;;;;;;4891124;29;20056;-89
2023/12/06 01:25:11;;;;;;;471.80;75.88;;;;;;;;;;4897858;29;20044;-90
2023/12/06 01:27:37;;;;;;;495.73;79.43;;;;;;;;;;4894330;29;20137;-90
2023/12/06 01:30:04;;;;;;;485.02;73.63;;;;;;;;;;4885962;29;20497;-88
2023/12/06 01:32:30;;;;;;;477.75;82.82;;;;;;;;;;4879003;29;20052;-89
2023/12/06 01:34:56;;;;;;;494.42;67.90;;;;;;;;;;4890229;29;20052;-90
2023/12/06 01:37:25;;;;;;;500.02;85.93;;;0.10;99.90;;;;;;4893112;29;20048;-89
2023/12/06 01:39:51;;;;;;;509.23;75.75;;;;;;;;;;4917828;29;20055;-90
2023/12/06 01:42:17;;;;;;;525.10;78.47;;;;;;;;;;4889825;29;20052;-89
2023/12/06 01:44:43;;;;;;;497.13;83.40;;;;;;;;;;4899611;29;20116;-90
2023/12/06 01:47:10;;;;;;;502.90;73.40;;;;;;;;;;4890952;29;20048;-90
2023/12/06 01:49:36;;;;;;;460.27;77.47;;;;;;;;;;4886226;29;20055;-90
2023/12/06 01:52:02;;;;;;;490.85;81.47;;;;;;;;;;4896440;29;20478;-88
2023/12/06 01:54:28;;;;;;;462.30;71.55;;;;;;;;;;4894319;29;20132;-90
2023/12/06 01:56:55;;;;;;;518.67;79.03;;;0.00;99.90;;;;;;4903306;29;20048;-91
2023/12/06 01:59:21;;;;;;;507.48;72.18;;;;;;;;;;4894506;29;20683;-90
2023/12/06 02:01:49;;;;;;;501.85;81.72;;;-0.10;99.90;;;;;;4890283;29;20139;-88
2023/12/06 02:04:16;;;;;;;510.95;72.03;;;;;;;;;;4896570;29;20853;-89
2023/12/06 02:06:45;;;;;;;513.92;74.15;;;;;;;;;;4890914;29;20058;-88
2023/12/06 02:09:14;;;;;;;507.60;82.40;;;0.00;99.90;;;;;;4899286;29;20083;-87
2023/12/06 02:11:40;;;;;;;499.35;78.05;;;;;;;;;;4887585;29;20062;-89
2023/12/06 02:14:07;;;;;;;475.83;63.75;;;;;;;;;;4912118;29;20057;-90
2023/12/06 02:16:33;;;;;;;468.63;67.25;;;;;;;;;;4883921;29;20059;-90
2023/12/06 02:18:59;;;;;;;476.23;63.35;;;;;;;;;;4896848;29;20070;-89
2023/12/06 02:21:25;;;;;;;479.75;63.85;;;;;;;;;;4891192;29;20497;-89
2023/12/06 02:23:52;;;;;;;502.75;76.63;;;-0.10;99.90;;;;;;4916909;29;20158;-89
2023/12/06 02:26:18;;;;;;;497.67;77.05;;;;;;;;;;4910947;29;20051;-88
2023/12/06 02:28:45;;;;;;;486.08;70.75;;;;;;;;;;4894395;29;20052;-88
2023/12/06 02:31:11;;;;;;;452.23;76.65;;;;;;;;;;4883135;29;20052;-88
2023/12/06 02:33:38;;;;;;;499.13;79.35;;;-0.40;99.90;;;;;;4889139;29;20054;-89
2023/12/06 02:36:05;;;;;;;481.77;64.22;;;0.00;99.90;;;;;;4904413;29;20136;-89
2023/12/06 02:38:38;;;;;;;501.08;72.85;;;0.50;99.90;;;;;;4890134;29;20525;-89
2023/12/06 02:41:06;;;;;;;503.20;67.03;;;-0.10;99.90;;;;;;4903521;29;20051;-88
2023/12/06 02:43:32;;;;;;;450.27;63.78;;;;;;;;;;4894908;29;20059;-89
2023/12/06 02:46:00;;;;;;;497.15;74.68;;;0.00;99.90;;;;;;4888663;29;20107;-89
2023/12/06 02:48:26;;;;;;;468.52;79.90;;;0.00;99.90;;;;;;4900886;29;20147;-89
2023/12/06 02:50:52;;;;;;;513.28;76.40;;;;;;;;;;4921254;29;20116;-89
2023/12/06 02:53:18;;;;;;;490.38;64.82;;;;;;;;;;4901336;29;20051;-89
2023/12/06 02:55:44;;;;;;;514.13;74.43;;;;;;;;;;4904995;29;20056;-88
2023/12/06 02:58:11;;;;;;;493.67;76.88;;;;;;;;;;4896218;29;20056;-88
2023/12/06 03:00:37;;;;;;;476.55;77.38;;;;;;;;;;4895771;29;20051;-90
2023/12/06 03:03:03;;;;;;;501.38;68.85;;;0.10;99.90;;;;;;4891676;29;20056;-89
2023/12/06 03:05:29;;;;;;;525.47;70.85;;;;;;;;;;4895442;29;20063;-88
2023/12/06 03:07:55;;;;;;;464.38;69.75;;;;;;;;;;4889282;29;20161;-88
2023/12/06 03:10:21;;;;;;;489.70;70.50;;;;;;;;;;4901922;29;20079;-90
2023/12/06 03:12:50;;;;;;;516.70;74.75;;;;;;;;;;4890680;29;20055;-89
2023/12/06 03:15:16;;;;;;;479.80;73.97;;;0.00;99.90;;;;;;4888565;29;20043;-89
2023/12/06 03:17:42;;;;;;;487.20;79.80;;;;;;;;;;4911596;29;20493;-90
2023/12/06 03:20:08;;;;;;;501.92;77.40;;;;;;;;;;4895698;29;20054;-89
2023/12/06 03:22:34;;;;;;;504.20;74.28;;;;;;;;;;4890047;29;20055;-90
2023/12/06 03:25:07;;;;;;;475.63;70.28;;;-0.30;99.90;;;;;;4891106;29;20051;-90
2023/12/06 03:27:33;;;;;;;500.00;73.55;;;;;;;;;;4886274;29;20062;-88
2023/12/06 03:29:59;;;;;;;497.77;75.07;;;0.10;99.90;;;;;;4899070;29;20707;-88
2023/12/06 03:32:25;;;;;;;485.38;76.97;;;;;;;;;;4889763;29;20139;-88
2023/12/06 03:34:51;;;;;;;510.20;79.70;;;;;;;;;;4882082;29;20471;-89
2023/12/06 03:37:17;;;;;;;473.60;70.97;;;;;;;;;;4892843;29;20052;-89
2023/12/06 03:39:43;;;;;;;459.73;74.15;;;;;;;;;;4878744;29;20083;-88
2023/12/06 03:42:10;;;;;;;544.53;74.03;;;;;;;;;;4885894;29;20048;-89
2023/12/06 03:44:36;;;;;;;478.08;70.97;;;;;;;;;;4893744;29;20051;-89
2023/12/06 03:47:02;;;;;;;486.42;71.32;;;;;;;;;;4893609;29;20082;-90
2023/12/06 03:49:28;;;;;;;497.33;73.57;;;;;;;;;;4882403;29;20059;-88
2023/12/06 03:51:54;;;;;;;463.48;68.53;;;;;;;;;;4881806;29;20052;-89
2023/12/06 03:54:20;;;;;;;476.33;74.50;;;;;;;;;;4882879;29;20055;-89
2023/12/06 03:56:46;;;;;;;476.00;74.45;;;;;;;;;;4904717;29;20090;-90
2023/12/06 03:59:13;;;;;;;475.35;66.93;;;;;;;;;;4884154;29;20398;-91
2023/12/06 04:01:43;;;;;;;483.05;66.65;;;-0.10;99.90;;;;;;4894302;29;20120;-89
2023/12/06 04:04:09;;;;;;;446.30;63.83;;;;;;;;;;4898424;29;20040;-90
2023/12/06 04:06:36;;;;;;;431.45;67.93;;;;;;;;;;4886218;29;20767;-89
2023/12/06 04:09:02;;;;;;;441.65;63.50;;;;;;;;;;4892753;29;20056;-90
2023/12/06 04:11:31;;;;;;;416.80;67.75;;;0.00;99.90;;;;;;4887925;29;20443;-91
2023/12/06 04:13:57;;;;;;;425.00;60.03;;;;;;;;;;4888622;29;20058;-90
2023/12/06 04:16:23;;;;;;;418.50;66.63;;;;;;;;;;4901400;29;20056;-89
2023/12/06 04:18:49;;;;;;;414.67;51.10;;;;;;;;;;4890278;29;20796;-90
2023/12/06 04:21:16;;;;;;;433.42;60.47;;;;;;;;;;4907895;29;20048;-90
2023/12/06 04:23:42;;;;;;;359.55;53.85;;;;;;;;;;4897048;29;20452;-90
2023/12/06 04:26:08;;;;;;;370.20;58.33;;;;;;;;;;4910545;29;20047;-90
2023/12/06 04:28:34;;;;;;;374.63;55.70;;;;;;;;;;4895029;29;20162;-90
2023/12/06 04:31:00;;;;;;;364.42;59.17;;;;;;;;;;4893482;29;20055;-90
2023/12/06 04:33:27;;;;;;;319.52;53.90;;;;;;;;;;4902580;29;20063;-90
2023/12/06 04:35:53;;;;;;;358.92;52.08;;;;;;;;;;4882246;29;20585;-88
2023/12/06 04:38:19;;;;;;;370.98;54.92;;;;;;;;;;4899694;29;20051;-90
2023/12/06 04:40:45;;;;;;;364.95;55.88;;;;;;;;;;4899290;29;20056;-91
2023/12/06 04:43:11;;;;;;;339.38;55.83;;;;;;;;;;4890902;29;20063;-89
2023/12/06 04:45:37;;;;;;;324.38;54.33;;;;;;;;;;4896874;29;20525;-91
2023/12/06 04:48:04;;;;;;;368.73;53.63;;;;;;;;;;4890358;29;20156;-91
2023/12/06 04:50:30;;;;;;;332.60;56.50;;;;;;;;;;4887945;29;20768;-90
2023/12/06 04:52:56;;;;;;;345.25;56.50;;;;;;;;;;4893781;29;20054;-89
2023/12/06 04:55:23;;;;;;;319.75;53.90;;;-0.10;99.90;;;;;;4899200;29;20563;-90
2023/12/06 04:57:49;;;;;;;328.48;53.22;;;;;;;;;;4890581;29;20068;-90
2023/12/06 05:00:16;;;;;;;305.80;52.67;;;0.00;99.90;;;;;;4898652;29;20052;-90
2023/12/06 05:02:42;;;;;;;337.80;51.88;;;;;;;;;;4907061;29;20111;-89
2023/12/06 05:05:07;;;;;;;338.10;54.63;;;0.00;99.90;;;;;;4918738;29;20104;-90
2023/12/06 05:07:33;;;;;;;356.35;55.28;;;0.10;99.90;;;;;;4909611;29;20683;-89
2023/12/06 05:10:00;;;;;;;381.45;62.97;;;0.00;99.90;;;;;;4892950;29;20064;-91
2023/12/06 05:12:26;;;;;;;332.80;53.30;;;-0.20;99.90;;;;;;4898473;29;20188;-91
2023/12/06 05:14:52;;;;;;;368.92;61.72;;;;;;;;;;4885346;29;20131;-90
2023/12/06 05:17:18;;;;;;;333.98;52.60;;;;;;;;;;4890626;29;20103;-90
2023/12/06 05:19:44;;;;;;;363.15;56.40;;;;;;;;;;4905780;29;20051;-90
2023/12/06 05:22:10;;;;;;;272.27;47.95;;;;;;;;;;4894777;29;20060;-90
2023/12/06 05:24:47;;;;;;;351.30;58.05;;;-0.10;99.90;;;;;;4902020;29;20552;-91
2023/12/06 05:27:14;;;;;;;249.65;51.58;;;-0.10;99.90;;;;;;4904400;29;20087;-92
2023/12/06 05:29:40;;;;;;;340.42;55.75;;;;;;;;;;4891656;29;20052;-90
2023/12/06 05:32:15;;;;;;;336.25;56.28;;;0.00;99.90;;;;;;4920387;29;20405;-89
2023/12/06 05:34:41;;;;;;;279.27;48.80;;;;;;;;;;4905039;29;20056;-92
2023/12/06 05:37:10;;;;;;;315.48;51.78;;;0.00;99.90;;;;;;4920228;29;20142;-92
2023/12/06 05:39:36;;;;;;;304.27;53.58;;;0.00;99.90;;;;;;4890110;29;20545;-91
2023/12/06 05:42:06;;;;;;;298.98;54.67;;;0.00;99.90;;;;;;4885871;29;20087;-91
2023/12/06 05:44:35;;;;;;;340.10;54.17;;;-0.20;99.90;;;;;;4886897;29;20138;-94
2023/12/06 05:47:02;;;;;;;346.08;57.95;;;;;;;;;;4887090;29;20055;-91
2023/12/06 05:49:28;;;;;;;304.80;58.75;;;;;;;;;;4890921;29;20048;-91
2023/12/06 05:51:54;;;;;;;340.50;61.17;;;;;;;;;;4918805;29;20051;-90
2023/12/06 05:54:20;;;;;;;242.00;55.08;;;0.00;99.90;;;;;;4892129;29;20059;-92
2023/12/06 05:56:46;;;;;;;304.33;60.17;;;;;;;;;;4902811;29;20124;-91
2023/12/06 05:59:12;;;;;;;273.30;56.65;;;;;;;;;;4914160;29;20510;-90
2023/12/06 06:01:39;;;;;;;321.38;57.92;;;;;;;;;;4908816;29;20051;-92
2023/12/06 06:04:30;;;;;;;307.70;57.63;;;0.00;99.90;;;;;;4904229;29;20048;-92
2023/12/06 06:06:57;;;;;;;389.50;58.30;;;0.00;99.90;;;;;;4913547;29;20048;-93
2023/12/06 06:09:25;;;;;;;297.58;55.83;;;0.00;99.90;;;;;;4904015;29;20058;-93
2023/12/06 06:11:54;;;;;;;325.27;52.72;;;0.00;99.90;;;;;;4913600;29;20047;-92
2023/12/06 06:14:20;;;;;;;327.00;53.65;;;;;;;;;;4908981;29;20052;-91
2023/12/06 06:16:51;;;;;;;265.30;51.25;;;0.00;99.90;;;;;;4902888;29;20119;-92
2023/12/06 06:19:17;;;;;;;267.92;53.22;;;;;;;;;;4900916;29;20494;-93
2023/12/06 06:21:43;;;;;;;323.60;51.78;;;;;;;;;;4893049;29;20056;-92
2023/12/06 06:24:09;;;;;;;357.70;51.10;;;;;;;;;;4918713;29;20059;-92
2023/12/06 06:26:35;;;;;;;306.08;50.72;;;;;;;;;;4904197;29;20059;-91
2023/12/06 06:29:01;;;;;;;323.05;52.40;;;;;;;;;;4908745;29;20055;-91
2023/12/06 06:31:27;;;;;;;302.48;49.95;;;;;;;;;;4901995;29;20044;-93
2023/12/06 06:33:54;;;;;;;351.80;53.30;;;;;;;;;;4926788;29;20059;-91
2023/12/06 06:36:20;;;;;;;275.40;52.55;;;;;;;;;;4907763;29;20047;-92
2023/12/06 06:38:46;;;;;;;266.92;51.40;;;;;;;;;;4910932;29;20083;-93
2023/12/06 06:41:12;;;;;;;227.93;49.08;;;;;;;;;;4903780;29;20048;-92
2023/12/06 06:43:40;;;;;;;253.27;49.47;;;0.00;99.90;;;;;;4901288;29;20048;-92
2023/12/06 06:46:06;;;;;;;259.05;52.05;;;;;;;;;;4896610;29;20089;-93
2023/12/06 06:48:32;;;;;;;240.80;51.70;;;;;;;;;;4903711;29;20047;-92
2023/12/06 06:50:59;;;;;;;310.45;52.42;;;;;;;;;;4887620;29;20051;-93
2023/12/06 06:53:25;;;;;;;263.15;51.00;;;;;;;;;;4884747;29;20139;-93
2023/12/06 06:55:53;;;;;;;237.98;52.05;;;0.10;99.90;;;;;;4891894;29;20120;-91
2023/12/06 06:58:19;;;;;;;350.02;58.38;;;;;;;;;;4892303;29;20084;-92
2023/12/06 07:00:45;;;;;;;259.60;53.30;;;;;;;;;;4891379;29;20070;-92
2023/12/06 07:03:13;;;;;;;247.50;51.35;;;;;;;;;;4885578;29;20052;-92
2023/12/06 07:05:39;;;;;;;238.77;50.10;;;;;;;;;;4908001;29;20071;-93
2023/12/06 07:08:06;;;;;;;268.33;49.85;;;;;;;;;;4905074;29;20043;-93
2023/12/06 07:10:34;;;;;;;240.35;51.42;;;0.30;99.90;;;;;;4918128;29;20413;-92
2023/12/06 07:13:00;;;;;;;325.30;55.85;;;;;;;;;;4917606;29;20048;-92
2023/12/06 07:15:26;;;;;;;266.10;53.78;;;;;;;;;;4903849;29;20048;-93
2023/12/06 07:17:53;;;;;;;237.88;50.50;;;;;;;;;;4902423;29;20075;-92
2023/12/06 07:20:19;;;;;;;311.52;55.75;;;;;;;;;;4893390;29;20048;-92
2023/12/06 07:22:45;;;;;;;276.50;51.22;;;;;;;;;;4894998;29;20094;-93
2023/12/06 07:25:15;;;;;;;211.60;49.83;;;0.30;99.90;;;;;;4894190;29;20052;-93
2023/12/06 07:27:48;;;;;;;239.65;51.90;;;0.50;99.90;;;;;;4885910;29;20310;-91
2023/12/06 07:30:18;;;;;;;285.98;55.47;;;0.10;99.90;;;;;;4891899;29;20059;-91
2023/12/06 07:32:46;;;;;;;230.25;48.15;;;;;;;;;;4884912;29;20052;-91
2023/12/06 07:35:13;;;;;;;245.63;50.42;;;;;;;;;;4900323;29;20107;-91
2023/12/06 07:37:41;;;;;;;247.52;50.33;;;;;;;;;;4919582;29;20055;-91
2023/12/06 07:40:11;;;;;;;202.77;45.22;;;;;;;;;;4903914;29;20565;-91
2023/12/06 07:42:38;;;;;;;235.38;48.25;;;;;;;;;;4893358;29;20553;-91
2023/12/06 07:45:04;;;;;;;267.92;47.45;;;;;;;;;;4896578;29;20063;-92
2023/12/06 07:47:31;;;;;;;267.38;49.33;;;;;;;;;;4884590;29;20040;-90
2023/12/06 07:49:57;;;;;;;220.98;48.03;;;;;;;;;;4889236;29;20915;-91
2023/12/06 07:52:23;;;;;;;214.77;43.67;;;;;;;;;;4886114;29;20473;-92
2023/12/06 07:54:49;;;;;;;266.95;49.67;;;;;;;;;;4898532;29;20044;-90
2023/12/06 07:57:15;;;;;;;204.80;46.63;;;;;;;;;;4882141;29;20085;-90
2023/12/06 07:59:43;;;;;;;223.85;45.55;;;;;;;;;;4878692;29;20056;-91
2023/12/06 08:02:09;;;;;;;218.00;43.00;;;;;;;;;;4891470;29;20047;-91
2023/12/06 08:04:35;;;;;;;259.77;43.25;;;;;;;;;;4880019;29;20058;-91
2023/12/06 08:07:02;;;;;;;193.32;44.17;;;;;;;;;;4899914;29;20066;-91
2023/12/06 08:09:29;;;;;;;186.60;43.78;;;;;;;;;;4887250;29;20055;-92
2023/12/06 08:11:56;;;;;;;234.35;47.15;;;;;;;;;;4904391;29;20096;-91
2023/12/06 08:14:23;;;;;;;180.60;40.72;;;;;;;;;;4896190;29;20107;-91
2023/12/06 08:16:50;;;;;;;169.07;41.70;;;;;;;;;;4893593;29;20156;-92
2023/12/06 08:19:16;;;;;;;206.38;45.30;;;;;;;;;;4892897;29;20115;-90
2023/12/06 08:21:43;;;;;;;194.27;44.85;;;;;;;;;;4900247;29;20052;-91
2023/12/06 08:24:09;;;;;;;200.75;45.40;;;;;;;;;;4901401;29;20364;-91
2023/12/06 08:26:35;;;;;;;219.40;45.20;;;;;;;;;;4906834;29;20115;-91
2023/12/06 08:29:01;;;;;;;213.65;47.08;;;;;;;;;;4887586;29;20474;-91
2023/12/06 08:31:28;;;;;;;185.65;43.85;;;;;;;;;;4899008;29;20090;-92
2023/12/06 08:33:54;;;;;;;160.02;40.40;;;;;;;;;;4894432;29;20044;-90
2023/12/06 08:36:20;;;;;;;248.05;49.67;;;;;;;;;;4887563;29;20489;-91
2023/12/06 08:38:47;;;;;;;183.55;43.30;;;;;;;;;;4891540;29;20089;-91
2023/12/06 08:41:13;;;;;;;204.30;41.55;;;;;;;;;;4886753;29;20059;-90
2023/12/06 08:43:40;;;;;;;180.57;42.28;;;;;;;;;;4887741;29;20055;-90
2023/12/06 08:46:07;;;;;;;214.18;44.22;;;;;;;;;;4885619;29;20108;-90
2023/12/06 08:48:34;;;;;;;181.70;39.75;;;;;;;;;;4882991;29;20152;-91
2023/12/06 08:51:00;;;;;;;163.27;39.33;;;;;;;;;;4884985;29;20075;-89
2023/12/06 08:53:26;;;;;;;145.93;38.50;;;;;;;;;;4888054;29;20087;-89
2023/12/06 08:55:54;;;;;;;163.60;43.03;;;;;;;;;;4899182;29;20078;-89
2023/12/06 08:58:20;;;;;;;213.25;44.97;;;;;;;;;;4899456;29;20694;-88
2023/12/06 09:00:47;;;;;;;189.43;43.10;;;;;;;;;;4917661;29;20079;-89
2023/12/06 09:03:13;;;;;;;154.57;40.78;;;;;;;;;;4886781;29;20056;-89
2023/12/06 09:05:39;;;;;;;135.75;38.53;;;;;;;;;;4917558;29;20040;-89
2023/12/06 09:08:06;;;;;;;155.90;41.55;;;;;;;;;;4904251;29;20058;-89
2023/12/06 09:10:32;;;;;;;213.60;44.22;;;0.60;99.90;;;;;;4901354;29;20161;-91
2023/12/06 09:12:58;;;;;;;172.43;42.50;;;;;;;;;;4902370;29;20103;-91
2023/12/06 09:15:24;;;;;;;186.35;43.15;;;;;;;;;;4923721;29;20482;-90
2023/12/06 09:17:56;;;;;;;168.30;39.78;;;;;;;;;;4919278;29;20082;-92
2023/12/06 09:20:22;;;;;;;209.57;44.83;;;;;;;;;;4912272;29;20036;-89
2023/12/06 09:22:48;;;;;;;167.00;39.47;;;;;;;;;;4931577;29;20088;-89
2023/12/06 09:25:14;;;;;;;156.68;38.63;;;;;;;;;;4891134;29;20051;-89
2023/12/06 09:27:43;;;;;;;155.65;41.95;;;;;;;;;;4902637;29;20048;-91
2023/12/06 09:30:09;;;;;;;136.82;39.75;;;;;;;;;;4885965;29;20079;-90
2023/12/06 09:32:35;;;;;;;171.02;39.97;;;;;;;;;;4899484;29;20580;-91
2023/12/06 09:35:01;;;;;;;184.90;39.05;;;;;;;;;;4903350;29;20043;-89
2023/12/06 09:37:27;;;;;;;156.10;40.28;;;;;;;;;;4904913;29;20115;-91
2023/12/06 09:39:54;;;;;;;139.90;38.90;;;;;;;;;;4895708;29;20084;-91
2023/12/06 09:42:20;;;;;;;140.52;39.30;;;;;;;;;;4896449;29;20417;-92
2023/12/06 09:44:46;;;;;;;161.45;39.75;;;;;;;;;;4898038;29;20490;-90
2023/12/06 09:47:13;;;;;;;120.47;36.35;;;;;;;;;;4887717;29;20088;-91
2023/12/06 09:49:39;;;;;;;195.60;39.75;;;;;;;;;;4915616;29;20765;-90
2023/12/06 09:52:25;;;;;;;190.80;39.72;;;1.10;99.90;;;;;;4892589;29;20040;-91
2023/12/06 09:54:51;;;;;;;111.82;34.20;;;;;;;;;;4892811;29;20062;-91
2023/12/06 09:57:18;;;;;;;130.65;37.90;;;;;;;;;;4904413;29;20048;-91
2023/12/06 09:59:44;;;;;;;125.05;37.05;;;;;;;;;;4911756;29;20056;-91
2023/12/06 10:02:10;;;;;;;95.53;33.00;;;;;;;;;;4905547;29;20051;-91
2023/12/06 10:04:36;;;;;;;168.57;39.13;;;;;;;;;;4886511;29;20052;-90
2023/12/06 10:07:02;;;;;;;97.20;33.40;;;;;;;;;;4930056;29;20043;-92
2023/12/06 10:09:29;;;;;;;107.40;33.63;;;;;;;;;;4880962;29;20040;-91
2023/12/06 10:12:24;;;;;;;112.80;33.65;;;1.30;99.90;;;;;;4901948;29;20192;-90
2023/12/06 10:14:57;;;;;;;111.72;33.13;;;;;;;;;;4878427;29;20494;-92
2023/12/06 10:17:23;;;;;;;181.60;37.42;;;;;;;;;;4891139;29;20518;-89
2023/12/06 10:19:50;;;;;;;117.97;33.47;;;;;;;;;;4902976;29;20047;-90
2023/12/06 10:22:19;;;;;;;88.07;31.98;;;;;;;;;;4890661;29;20124;-91
2023/12/06 10:24:45;;;;;;;90.03;32.22;;;;;;;;;;4901543;29;20539;-91
2023/12/06 10:27:14;;;;;;;81.78;33.15;;;;;;;;;;4901966;29;20051;-91
2023/12/06 10:29:40;;;;;;;104.85;33.25;;;;;;;;;;4909791;29;20727;-90
2023/12/06 10:32:10;;;;;;;127.68;35.03;;;;;;;;;;4900353;29;20056;-91
2023/12/06 10:34:41;;;;;;;101.65;34.00;;;;;;;;;;4899160;29;20059;-91
2023/12/06 10:37:12;;;;;;;98.37;34.73;;;;;;;;;;4882969;29;20737;-91
2023/12/06 10:39:39;;;;;;;107.15;35.03;;;;;;;;;;4898170;29;20058;-91
2023/12/06 10:42:08;;;;;;;100.60;33.40;;;;;;;;;;4883432;29;20063;-91
2023/12/06 10:44:40;;;;;;;102.28;33.67;;;;;;;;;;4893218;29;20729;-91
2023/12/06 10:47:07;;;;;;;86.50;32.55;;;;;;;;;;4895744;29;20397;-90
2023/12/06 10:49:36;;;;;;;91.40;33.72;;;;;;;;;;4880752;29;20063;-92
2023/12/06 10:52:03;;;;;;;85.57;31.60;;;;;;;;;;4894730;29;20047;-92
2023/12/06 10:54:30;;;;;;;104.65;35.53;;;;;;;;;;4907322;29;20159;-90
2023/12/06 10:56:56;;;;;;;105.68;34.05;;;;;;;;;;4886379;29;20108;-91
2023/12/06 10:59:29;;;;;;;124.75;35.13;;;;;;;;;;4888671;29;20512;-91
2023/12/06 11:01:55;;;;;;;88.07;32.63;;;;;;;;;;4901697;29;20059;-91
2023/12/06 11:04:24;;;;;;;91.35;32.58;;;;;;;;;;4901222;29;20062;-91
2023/12/06 11:07:12;;;;;;;86.28;31.80;;;;;;;;;;4895033;29;20067;-90
2023/12/06 11:10:19;;;;;;;102.05;32.22;;;1.80;99.90;;;;;;4897000;29;20704;-91
2023/12/06 11:12:48;;;;;;;82.30;30.52;;;;;;;;;;4903069;29;20051;-90
2023/12/06 11:15:38;;;;;;;102.15;33.85;;;1.70;99.90;;;;;;4902685;29;20148;-91
2023/12/06 11:18:23;;;;;;;88.03;33.15;;;;;;;;;;4896815;29;20653;-91
2023/12/06 11:20:49;;;;;;;86.63;31.10;;;;;;;;;;4894238;29;20115;-91
2023/12/06 11:23:20;;;;;;;133.95;35.97;;;1.90;99.90;;;;;;4889524;29;20750;-89
2023/12/06 11:25:48;;;;;;;105.28;34.83;;;;;;;;;;4907144;29;20118;-90
2023/12/06 11:28:16;;;;;;;81.85;30.95;;;;;;;;;;4887011;29;20131;-91
2023/12/06 11:30:57;;;;;;;102.55;34.20;;;1.90;99.90;;;;;;4891315;29;20087;-91
2023/12/06 11:33:24;;;;;;;93.60;33.20;;;;;;;;;;4882940;29;20063;-90
2023/12/06 11:35:51;;;;;;;102.35;34.25;;;;;;;;;;4880903;29;20055;-89
2023/12/06 11:38:17;;;;;;;92.60;33.50;;;;;;;;;;4882721;29;20124;-91
2023/12/06 11:40:51;;;;;;;112.32;34.65;;;;;;;;;;4888104;29;20059;-90
2023/12/06 11:43:19;;;;;;;82.57;32.97;;;;;;;;;;4898258;29;20056;-90
2023/12/06 11:45:46;;;;;;;76.95;31.48;;;;;;;;;;4897130;29;20048;-90
2023/12/06 11:48:13;;;;;;;84.78;31.25;;;;;;;;;;4885777;29;20082;-91
2023/12/06 11:50:42;;;;;;;79.03;32.72;;;;;;;;;;4892868;29;20793;-88
2023/12/06 11:53:14;;;;;;;98.35;34.70;;;;;;;;;;4912260;29;20115;-90
2023/12/06 11:55:43;;;;;;;90.43;32.60;;;;;;;;;;4892367;29;20478;-87
2023/12/06 11:58:10;;;;;;;78.18;31.75;;;;;;;;;;4882994;29;20526;-88
2023/12/06 12:00:40;;;;;;;76.93;33.05;;;2.10;99.90;;;;;;4897720;29;20474;-90
2023/12/06 12:03:06;;;;;;;78.90;32.22;;;2.10;99.90;;;;;;4885073;29;20056;-89
2023/12/06 12:05:32;;;;;;;92.85;32.90;;;;;;;;;;4892004;29;20080;-91
2023/12/06 12:08:02;;;;;;;72.28;31.25;;;;;;;;;;4909059;29;20048;-89
2023/12/06 12:10:29;;;;;;;73.95;31.48;;;2.20;99.90;;;;;;4877157;29;20083;-90
2023/12/06 12:12:55;;;;;;;70.40;31.42;;;;;;;;;;4883886;29;20058;-91
2023/12/06 12:15:22;;;;;;;89.93;32.38;;;;;;;;;;4893658;29;20478;-89
2023/12/06 12:17:51;;;;;;;75.40;32.10;;;;;;;;;;4902092;29;20139;-89
2023/12/06 12:20:18;;;;;;;85.43;31.75;;;;;;;;;;4887111;29;20056;-89
2023/12/06 12:22:48;;;;;;;73.20;30.50;;;;;;;;;;4894039;29;20056;-89
2023/12/06 12:25:15;;;;;;;94.05;32.65;;;;;;;;;;4909131;29;20555;-90
2023/12/06 12:27:41;;;;;;;97.80;32.55;;;;;;;;;;4899769;29;20052;-88
2023/12/06 12:30:09;;;;;;;71.07;29.25;;;;;;;;;;4915771;29;20834;-90
2023/12/06 12:32:36;;;;;;;79.85;32.28;;;;;;;;;;4905886;29;20047;-90
2023/12/06 12:35:03;;;;;;;67.82;29.30;;;;;;;;;;4882359;29;20044;-88
2023/12/06 12:37:29;;;;;;;64.57;30.05;;;;;;;;;;4895559;29;20057;-88
2023/12/06 12:39:55;;;;;;;88.28;31.42;;;;;;;;;;4913648;29;20107;-91
2023/12/06 12:42:21;;;;;;;92.88;30.75;;;;;;;;;;4910023;29;20048;-89
2023/12/06 12:44:48;;;;;;;63.15;27.85;;;;;;;;;;4891263;29;20053;-90
2023/12/06 12:47:18;;;;;;;61.50;27.67;;;;;;;;;;4882307;29;20055;-90
2023/12/06 12:49:45;;;;;;;81.60;32.55;;;;;;;;;;4886364;29;20618;-91
2023/12/06 12:52:14;;;;;;;91.47;32.05;;;;;;;;;;4902837;29;20151;-89
2023/12/06 12:54:41;;;;;;;72.95;29.15;;;;;;;;;;4892966;29;20044;-90
2023/12/06 12:57:07;;;;;;;66.57;28.63;;;;;;;;;;4896277;29;20063;-90
2023/12/06 12:59:36;;;;;;;66.22;29.45;;;;;;;;;;4889554;29;20088;-89
2023/12/06 13:02:03;;;;;;;68.53;28.42;;;;;;;;;;4884691;29;20139;-88
2023/12/06 13:04:29;;;;;;;62.75;28.30;;;;;;;;;;4900299;29;20092;-89
2023/12/06 13:06:55;;;;;;;77.15;28.80;;;;;;;;;;4895880;29;20131;-88
2023/12/06 13:09:22;;;;;;;66.57;27.85;;;;;;;;;;4886067;29;20047;-88
2023/12/06 13:11:48;;;;;;;75.72;28.42;;;;;;;;;;4903831;29;20044;-89
2023/12/06 13:14:15;;;;;;;115.53;31.73;;;;;;;;;;4885823;29;20056;-89
2023/12/06 13:16:42;;;;;;;61.67;28.13;;;;;;;;;;4901012;29;20056;-89
2023/12/06 13:19:08;;;;;;;80.78;28.67;;;;;;;;;;4899652;29;20090;-89
2023/12/06 13:21:34;;;;;;;83.97;28.73;;;;;;;;;;4886290;29;20165;-89
2023/12/06 13:24:00;;;;;;;69.85;27.70;;;;;;;;;;4901050;29;20055;-89
2023/12/06 13:26:27;;;;;;;74.40;29.55;;;;;;;;;;4910402;29;20051;-90
2023/12/06 13:28:53;;;;;;;69.75;28.45;;;;;;;;;;4908653;29;20465;-89
2023/12/06 13:31:19;;;;;;;73.50;27.13;;;;;;;;;;4919013;29;20052;-88
2023/12/06 13:33:45;;;;;;;70.55;27.77;;;;;;;;;;4904673;29;20036;-89
2023/12/06 13:36:14;;;;;;;71.97;26.92;;;;;;;;;;4926080;29;20421;-88
2023/12/06 13:38:40;;;;;;;64.22;26.65;;;;;;;;;;4892815;29;20051;-89
2023/12/06 13:41:08;;;;;;;71.95;26.88;;;;;;;;;;4899024;29;20052;-88
2023/12/06 13:43:35;;;;;;;63.80;25.67;;;;;;;;;;4884617;29;20090;-89
2023/12/06 13:46:01;;;;;;;62.83;25.38;;;;;;;;;;4884828;29;20085;-86
2023/12/06 13:48:27;;;;;;;71.20;28.17;;;;;;;;;;4891137;29;20055;-89
2023/12/06 13:50:53;;;;;;;88.03;28.45;;;;;;;;;;4892824;29;20055;-89